Time;durP1;ratioP1;P1;durP2;ratioP2;P2;SDS_P1;SDS_P2;PMS_P1;PMS_P2;Temp;Humidity;BMP_temperature;BMP_pressure;BME280_temperature;BME280_humidity;BME280_pressure;Samples;Min_cycle;Max_cycle;Signal;HPM_P1;HPM_P2
2023/08/31 00:02:16;;;;;;;6.57;2.20;;;12.90;99.90;;;;;;5033201;28;20274;-73
2023/08/31 00:04:42;;;;;;;3.92;2.17;;;12.90;99.90;;;;;;5026553;28;20645;-68
2023/08/31 00:07:08;;;;;;;5.43;2.30;;;12.90;99.90;;;;;;5025097;28;20194;-67
2023/08/31 00:09:34;;;;;;;4.38;2.08;;;12.90;99.90;;;;;;5031185;28;20299;-67
2023/08/31 00:12:02;;;;;;;4.00;2.15;;;12.90;99.90;;;;;;5027014;28;20269;-67
2023/08/31 00:14:28;;;;;;;3.70;1.85;;;12.90;99.90;;;;;;5029825;28;20212;-67
2023/08/31 00:16:54;;;;;;;3.92;2.20;;;13.00;99.90;;;;;;5031487;28;20196;-67
2023/08/31 00:19:19;;;;;;;6.45;2.00;;;12.90;99.90;;;;;;5030366;28;20615;-71
2023/08/31 00:21:46;;;;;;;3.17;1.80;;;12.90;99.90;;;;;;5032462;28;20180;-67
2023/08/31 00:24:12;;;;;;;5.85;1.88;;;13.00;99.90;;;;;;5038789;28;20219;-66
2023/08/31 00:26:42;;;;;;;8.15;2.50;;;13.00;99.90;;;;;;5030182;28;20199;-65
2023/08/31 00:29:11;;;;;;;3.42;2.28;;;13.00;99.90;;;;;;5029267;28;20180;-67
2023/08/31 00:31:38;;;;;;;4.68;2.47;;;13.00;99.90;;;;;;5027989;28;20192;-66
2023/08/31 00:34:06;;;;;;;4.13;2.72;;;13.00;99.90;;;;;;5030350;28;20212;-66
2023/08/31 00:36:33;;;;;;;8.73;3.22;;;13.00;99.90;;;;;;5015379;28;20598;-72
2023/08/31 00:39:07;;;;;;;8.25;3.50;;;13.00;99.90;;;;;;5030058;28;20181;-66
2023/08/31 00:41:34;;;;;;;8.13;3.40;;;13.00;99.90;;;;;;5030933;28;20172;-66
2023/08/31 00:44:00;;;;;;;4.53;3.25;;;13.00;99.90;;;;;;5030474;28;20191;-67
2023/08/31 00:46:27;;;;;;;8.68;3.53;;;13.00;99.90;;;;;;5027855;28;20188;-65
2023/08/31 00:48:54;;;;;;;7.43;3.33;;;13.00;99.90;;;;;;5030737;28;20199;-68
2023/08/31 00:51:21;;;;;;;7.75;3.60;;;13.00;99.90;;;;;;5018140;28;20658;-66
2023/08/31 00:53:48;;;;;;;8.20;3.63;;;12.90;99.90;;;;;;5031066;28;20243;-67
2023/08/31 00:56:17;;;;;;;7.70;3.95;;;12.90;99.90;;;;;;5015326;28;20643;-68
2023/08/31 00:58:42;;;;;;;8.32;3.90;;;12.90;99.90;;;;;;5030321;28;20188;-69
2023/08/31 01:01:14;;;;;;;5.55;3.55;;;12.90;99.90;;;;;;5027917;28;20194;-67
2023/08/31 01:03:40;;;;;;;7.32;3.45;;;12.90;99.90;;;;;;5031689;28;20939;-68
2023/08/31 01:06:31;;;;;;;5.38;3.45;;;12.90;99.90;;;;;;5023848;28;20263;-66
2023/08/31 01:09:27;;;;;;;8.63;3.97;;;12.80;99.90;;;;;;5025203;28;20194;-66
2023/08/31 01:12:30;;;;;;;7.70;3.75;;;12.80;99.90;;;;;;5031020;28;20194;-67
2023/08/31 01:15:02;;;;;;;8.60;4.10;;;12.80;99.90;;;;;;5018478;28;20194;-67
2023/08/31 01:17:30;;;;;;;5.75;3.65;;;12.70;99.90;;;;;;5030175;28;20188;-67
2023/08/31 01:20:00;;;;;;;8.85;3.53;;;12.70;99.90;;;;;;5027124;28;20307;-66
2023/08/31 01:23:17;;;;;;;7.20;3.38;;;12.70;99.90;;;;;;5032935;28;20183;-67
2023/08/31 01:25:43;;;;;;;8.20;3.40;;;12.60;99.90;;;;;;5003392;28;20195;-67
2023/08/31 01:28:11;;;;;;;5.53;3.38;;;12.60;99.90;;;;;;5024155;28;20192;-67
2023/08/31 01:30:37;;;;;;;7.22;3.38;;;12.60;99.90;;;;;;5006456;28;20209;-66
2023/08/31 01:33:03;;;;;;;11.52;3.83;;;12.50;99.90;;;;;;5031581;28;20211;-68
2023/08/31 01:35:38;;;;;;;7.47;3.28;;;12.50;99.90;;;;;;5022745;28;20191;-66
2023/08/31 01:38:08;;;;;;;6.25;3.45;;;12.50;99.90;;;;;;5031840;28;20188;-65
2023/08/31 01:40:42;;;;;;;5.50;3.20;;;12.50;99.90;;;;;;5024753;28;20184;-66
2023/08/31 01:43:10;;;;;;;7.18;3.58;;;12.50;99.90;;;;;;5031151;28;20191;-66
2023/08/31 01:45:37;;;;;;;9.07;3.25;;;12.40;99.90;;;;;;5025468;28;20195;-67
2023/08/31 01:48:05;;;;;;;6.50;2.90;;;12.40;99.90;;;;;;5030641;28;20191;-66
2023/08/31 01:50:31;;;;;;;5.55;3.05;;;12.40;99.90;;;;;;5022088;28;20219;-66
2023/08/31 01:52:56;;;;;;;9.52;3.05;;;12.40;99.90;;;;;;5029840;28;20672;-65
2023/08/31 01:55:23;;;;;;;5.50;3.03;;;12.40;99.90;;;;;;5012912;28;20231;-66
2023/08/31 01:57:49;;;;;;;6.97;3.22;;;12.30;99.90;;;;;;5032074;28;20217;-65
2023/08/31 02:00:19;;;;;;;5.93;3.03;;;12.30;99.90;;;;;;5008272;28;20223;-66
2023/08/31 02:02:47;;;;;;;5.82;2.97;;;12.30;99.90;;;;;;5029020;28;20694;-68
2023/08/31 02:05:13;;;;;;;7.82;2.90;;;12.30;99.90;;;;;;5024364;28;20595;-66
2023/08/31 02:07:40;;;;;;;7.68;3.13;;;12.30;99.90;;;;;;5026899;28;20593;-66
2023/08/31 02:10:06;;;;;;;4.93;2.17;;;12.20;99.90;;;;;;5026030;28;20193;-66
2023/08/31 02:12:33;;;;;;;7.93;2.78;;;12.20;99.90;;;;;;5028915;28;20187;-66
2023/08/31 02:14:59;;;;;;;5.55;2.55;;;12.20;99.90;;;;;;5026435;28;20193;-70
2023/08/31 02:17:26;;;;;;;6.45;2.45;;;12.20;99.90;;;;;;5034463;28;20271;-67
2023/08/31 02:19:53;;;;;;;7.00;2.50;;;12.20;99.90;;;;;;5032983;28;20191;-67
2023/08/31 02:22:19;;;;;;;6.00;2.50;;;12.20;99.90;;;;;;5032360;28;20667;-68
2023/08/31 02:24:47;;;;;;;2.92;2.38;;;12.20;99.90;;;;;;5024224;28;20196;-68
2023/08/31 02:27:13;;;;;;;6.03;2.28;;;12.20;99.90;;;;;;5034323;28;20184;-67
2023/08/31 02:29:39;;;;;;;6.53;2.40;;;12.20;99.90;;;;;;5011519;28;20668;-67
2023/08/31 02:32:06;;;;;;;3.90;2.50;;;12.20;99.90;;;;;;5032642;28;20184;-70
2023/08/31 02:34:33;;;;;;;5.90;2.42;;;12.20;99.90;;;;;;5030095;28;20231;-67
2023/08/31 02:36:59;;;;;;;8.75;2.90;;;12.30;99.90;;;;;;5031739;28;20180;-67
2023/08/31 02:39:27;;;;;;;5.85;2.40;;;12.20;99.90;;;;;;5028557;28;20653;-67
2023/08/31 02:41:53;;;;;;;3.80;2.25;;;12.30;99.90;;;;;;5032672;28;20186;-67
2023/08/31 02:44:19;;;;;;;5.70;2.28;;;12.30;99.90;;;;;;5030990;28;20184;-67
2023/08/31 02:46:46;;;;;;;5.90;2.50;;;12.30;99.90;;;;;;5031416;28;20184;-67
2023/08/31 02:49:12;;;;;;;3.65;2.30;;;12.30;99.90;;;;;;5015947;28;20243;-67
2023/08/31 02:51:38;;;;;;;6.53;2.20;;;12.30;99.90;;;;;;5031354;28;20182;-68
2023/08/31 02:54:04;;;;;;;5.15;2.25;;;12.30;99.90;;;;;;5031588;28;20233;-67
2023/08/31 02:56:30;;;;;;;4.95;2.50;;;12.30;99.90;;;;;;5033331;28;20207;-66
2023/08/31 02:58:56;;;;;;;7.28;2.20;;;12.30;99.90;;;;;;5030902;28;20238;-67
2023/08/31 03:01:24;;;;;;;6.22;2.05;;;12.30;99.90;;;;;;5033593;28;20270;-66
2023/08/31 03:03:51;;;;;;;6.00;2.10;;;12.30;99.90;;;;;;4992332;28;20589;-65
2023/08/31 03:06:17;;;;;;;5.97;2.15;;;12.40;99.90;;;;;;5024122;28;20204;-68
2023/08/31 03:08:43;;;;;;;5.03;1.77;;;12.40;99.90;;;;;;5034007;28;20219;-67
2023/08/31 03:11:09;;;;;;;5.30;2.10;;;12.40;99.90;;;;;;5027147;28;20192;-66
2023/08/31 03:13:35;;;;;;;7.28;2.28;;;12.50;99.90;;;;;;5033120;28;20206;-74
2023/08/31 03:16:02;;;;;;;3.75;1.75;;;12.50;99.90;;;;;;5032828;28;20287;-66
2023/08/31 03:18:29;;;;;;;2.88;1.60;;;12.50;99.90;;;;;;5033398;28;20183;-66
2023/08/31 03:20:55;;;;;;;3.92;2.10;;;12.50;99.90;;;;;;5027046;28;20200;-68
2023/08/31 03:23:24;;;;;;;3.65;1.80;;;12.50;99.90;;;;;;5042027;28;20273;-70
2023/08/31 03:25:50;;;;;;;6.03;1.52;;;12.50;99.90;;;;;;5030049;28;21763;-67
2023/08/31 03:28:16;;;;;;;2.88;1.63;;;12.50;99.90;;;;;;5035394;28;20632;-71
2023/08/31 03:30:44;;;;;;;3.00;1.50;;;12.50;99.90;;;;;;5025874;28;20199;-68
2023/08/31 03:33:12;;;;;;;5.90;1.60;;;12.50;99.90;;;;;;5033414;28;20723;-68
2023/08/31 03:35:38;;;;;;;4.90;1.88;;;12.50;99.90;;;;;;5030375;28;20199;-67
2023/08/31 03:38:04;;;;;;;5.30;1.85;;;12.50;99.90;;;;;;5033280;28;20195;-67
2023/08/31 03:40:31;;;;;;;6.72;1.60;;;12.60;99.90;;;;;;5029179;28;20191;-67
2023/08/31 03:42:57;;;;;;;5.72;1.50;;;12.60;99.90;;;;;;5033028;28;20197;-68
2023/08/31 03:45:22;;;;;;;5.10;2.03;;;12.60;99.90;;;;;;5029180;28;20274;-66
2023/08/31 03:47:50;;;;;;;2.97;1.52;;;12.60;99.90;;;;;;5032593;28;20188;-67
2023/08/31 03:50:16;;;;;;;2.45;1.42;;;12.70;99.90;;;;;;5031522;28;20263;-68
2023/08/31 03:52:42;;;;;;;3.67;1.60;;;12.70;99.90;;;;;;5033120;28;20195;-66
2023/08/31 03:55:08;;;;;;;5.75;1.80;;;12.70;99.90;;;;;;5027199;28;20619;-67
2023/08/31 03:57:34;;;;;;;5.13;1.70;;;12.70;99.90;;;;;;5033663;28;20191;-68
2023/08/31 04:00:12;;;;;;;3.70;1.55;;;12.70;99.90;;;;;;5019784;28;20193;-70
2023/08/31 04:02:44;;;;;;;4.30;1.83;;;12.70;99.90;;;;;;5031842;28;20254;-66
2023/08/31 04:05:11;;;;;;;4.60;1.90;;;12.70;99.90;;;;;;5059729;28;20180;-67
2023/08/31 04:07:37;;;;;;;6.20;1.52;;;12.70;99.90;;;;;;5030987;28;20195;-67
2023/08/31 04:10:03;;;;;;;3.67;1.52;;;12.70;99.90;;;;;;5030777;28;20234;-66
2023/08/31 04:12:30;;;;;;;7.80;1.98;;;12.70;99.90;;;;;;5033810;28;20198;-67
2023/08/31 04:14:58;;;;;;;6.85;2.00;;;12.60;99.90;;;;;;5060900;28;20556;-67
2023/08/31 04:17:25;;;;;;;5.22;1.77;;;12.60;99.90;;;;;;5015561;28;20180;-75
2023/08/31 04:19:50;;;;;;;5.65;1.90;;;12.60;99.90;;;;;;5026610;28;20197;-68
2023/08/31 04:22:17;;;;;;;5.47;1.95;;;12.60;99.90;;;;;;5032403;28;20238;-67
2023/08/31 04:24:42;;;;;;;3.15;1.90;;;12.60;99.90;;;;;;5033812;28;20239;-71
2023/08/31 04:27:08;;;;;;;3.47;2.00;;;12.60;99.90;;;;;;5031463;28;20970;-68
2023/08/31 04:29:34;;;;;;;4.57;2.13;;;12.60;99.90;;;;;;5030624;28;20192;-67
2023/08/31 04:32:00;;;;;;;9.40;2.20;;;12.50;99.90;;;;;;5028464;28;20544;-67
2023/08/31 04:34:27;;;;;;;5.47;2.20;;;12.50;99.90;;;;;;5012652;28;20290;-67
2023/08/31 04:36:53;;;;;;;3.03;1.80;;;12.40;99.90;;;;;;5031335;28;20887;-66
2023/08/31 04:39:19;;;;;;;5.50;2.22;;;12.40;99.90;;;;;;5029707;28;20199;-67
2023/08/31 04:41:44;;;;;;;4.13;2.30;;;12.40;99.90;;;;;;5029014;28;20184;-67
2023/08/31 04:44:10;;;;;;;4.13;2.53;;;12.40;99.90;;;;;;5027469;28;20220;-73
2023/08/31 04:46:38;;;;;;;5.97;2.15;;;12.30;99.90;;;;;;5032457;28;20188;-67
2023/08/31 04:49:04;;;;;;;6.03;2.70;;;12.30;99.90;;;;;;5029303;28;20194;-73
2023/08/31 04:51:35;;;;;;;3.95;2.45;;;12.20;99.90;;;;;;5028568;28;20318;-68
2023/08/31 04:54:02;;;;;;;8.18;2.45;;;12.20;99.90;;;;;;5030508;28;20310;-68
2023/08/31 04:56:32;;;;;;;6.75;2.83;;;12.20;99.90;;;;;;5028436;28;20238;-68
2023/08/31 04:58:58;;;;;;;6.72;2.80;;;12.10;99.90;;;;;;5012682;28;20229;-68
2023/08/31 05:01:24;;;;;;;6.03;3.03;;;12.10;99.90;;;;;;5029346;28;20233;-66
2023/08/31 05:03:50;;;;;;;5.28;3.00;;;12.10;99.90;;;;;;5030499;28;20187;-66
2023/08/31 05:06:16;;;;;;;8.10;2.97;;;12.00;99.90;;;;;;5031325;28;20208;-67
2023/08/31 05:08:42;;;;;;;6.82;2.90;;;12.00;99.90;;;;;;5030482;28;20192;-67
2023/08/31 05:11:08;;;;;;;6.25;3.17;;;12.00;99.90;;;;;;5030655;28;20184;-68
2023/08/31 05:13:34;;;;;;;6.68;3.00;;;12.00;99.90;;;;;;5029130;28;20651;-65
2023/08/31 05:16:00;;;;;;;8.07;3.17;;;12.00;99.90;;;;;;5029984;28;20640;-66
2023/08/31 05:18:26;;;;;;;6.40;3.15;;;12.00;99.90;;;;;;5014629;28;20195;-68
2023/08/31 05:20:52;;;;;;;8.77;3.40;;;12.00;99.90;;;;;;5027632;28;20183;-71
2023/08/31 05:23:18;;;;;;;5.95;3.60;;;12.00;99.90;;;;;;5013715;28;20188;-67
2023/08/31 05:25:44;;;;;;;6.97;3.75;;;12.00;99.90;;;;;;5030214;28;20597;-65
2023/08/31 05:28:10;;;;;;;6.63;3.38;;;12.00;99.90;;;;;;5032441;28;20191;-68
2023/08/31 05:30:37;;;;;;;7.60;3.53;;;12.00;99.90;;;;;;5026072;28;20204;-66
2023/08/31 05:33:06;;;;;;;5.75;3.55;;;12.00;99.90;;;;;;5038081;28;20222;-66
2023/08/31 05:35:32;;;;;;;6.07;3.22;;;12.00;99.90;;;;;;5027536;28;20184;-65
2023/08/31 05:37:58;;;;;;;7.00;3.30;;;12.10;99.90;;;;;;5046918;28;20195;-65
2023/08/31 05:40:24;;;;;;;7.05;3.55;;;12.10;99.90;;;;;;5029201;28;20195;-66
2023/08/31 05:42:50;;;;;;;7.78;3.28;;;12.10;99.90;;;;;;5031356;28;20647;-65
2023/08/31 05:45:16;;;;;;;8.30;3.47;;;12.20;99.90;;;;;;5019218;28;20554;-64
2023/08/31 05:47:42;;;;;;;7.40;3.25;;;12.20;99.90;;;;;;5027897;28;20188;-64
2023/08/31 05:50:08;;;;;;;7.50;3.20;;;12.30;99.90;;;;;;5029274;28;20652;-64
2023/08/31 05:52:34;;;;;;;6.35;3.15;;;12.30;99.90;;;;;;5020630;28;20560;-63
2023/08/31 05:55:01;;;;;;;7.43;2.88;;;12.40;99.90;;;;;;5025240;28;20279;-65
2023/08/31 05:57:29;;;;;;;8.35;2.92;;;12.40;99.90;;;;;;5032644;28;20191;-64
2023/08/31 05:59:55;;;;;;;3.75;2.75;;;12.50;99.90;;;;;;5034628;28;20266;-66
2023/08/31 06:02:21;;;;;;;7.18;2.53;;;12.50;99.90;;;;;;5021468;28;20605;-66
2023/08/31 06:04:47;;;;;;;8.25;2.70;;;12.60;99.90;;;;;;5038544;28;20192;-69
2023/08/31 06:07:13;;;;;;;5.57;2.50;;;12.70;99.90;;;;;;5030609;28;20192;-73
2023/08/31 06:09:39;;;;;;;6.10;2.58;;;12.70;99.90;;;;;;5026305;28;20193;-70
2023/08/31 06:12:06;;;;;;;4.47;2.22;;;12.90;99.90;;;;;;5040792;28;20184;-70
2023/08/31 06:14:32;;;;;;;5.65;2.45;;;13.00;99.90;;;;;;5034262;28;20215;-68
2023/08/31 06:16:59;;;;;;;5.22;2.67;;;13.20;99.90;;;;;;5028076;28;20204;-63
2023/08/31 06:19:25;;;;;;;8.93;2.50;;;13.30;99.90;;;;;;5028563;28;20255;-67
2023/08/31 06:21:52;;;;;;;6.30;2.45;;;13.40;99.90;;;;;;5039386;28;20579;-67
2023/08/31 06:24:22;;;;;;;4.65;2.20;;;13.50;99.90;;;;;;5030908;28;20199;-66
2023/08/31 06:26:48;;;;;;;7.35;2.33;;;13.60;99.90;;;;;;5021204;28;20191;-69
2023/08/31 06:29:14;;;;;;;8.65;2.15;;;13.60;99.90;;;;;;5026653;28;20183;-68
2023/08/31 06:31:40;;;;;;;7.80;2.35;;;13.70;99.90;;;;;;5012655;28;20184;-67
2023/08/31 06:34:06;;;;;;;5.07;2.10;;;13.80;99.90;;;;;;5028057;28;20215;-66
2023/08/31 06:36:32;;;;;;;13.93;2.45;;;13.80;99.90;;;;;;5027775;28;20282;-68
2023/08/31 06:38:58;;;;;;;5.90;2.17;;;13.90;99.90;;;;;;5026485;28;20585;-67
2023/08/31 06:41:24;;;;;;;6.70;2.53;;;13.90;99.90;;;;;;5026690;28;20729;-69
2023/08/31 06:43:50;;;;;;;4.50;2.00;;;14.00;99.90;;;;;;5029921;28;20195;-69
2023/08/31 06:46:16;;;;;;;6.65;2.15;;;14.00;99.90;;;;;;5025786;28;20567;-68
2023/08/31 06:48:42;;;;;;;4.60;2.10;;;14.00;99.90;;;;;;5041148;28;20179;-67
2023/08/31 06:51:08;;;;;;;4.93;2.00;;;14.10;99.90;;;;;;5022612;28;20947;-67
2023/08/31 06:53:34;;;;;;;6.47;1.95;;;14.10;99.90;;;;;;5036585;28;20224;-67
2023/08/31 06:56:00;;;;;;;7.20;1.90;;;14.20;99.90;;;;;;5025529;28;20281;-67
2023/08/31 06:58:26;;;;;;;5.57;1.75;;;14.30;99.90;;;;;;5031311;28;20279;-68
2023/08/31 07:00:52;;;;;;;11.30;1.98;;;14.40;99.90;;;;;;5028501;28;20188;-66
2023/08/31 07:03:18;;;;;;;8.40;2.10;;;14.50;99.90;;;;;;5032344;28;20285;-66
2023/08/31 07:05:44;;;;;;;7.82;2.17;;;14.60;99.90;;;;;;5032959;28;20219;-66
2023/08/31 07:08:10;;;;;;;5.35;2.08;;;14.70;99.90;;;;;;5037167;28;20188;-66
2023/08/31 07:10:36;;;;;;;5.68;1.80;;;14.80;99.90;;;;;;5024133;28;20250;-67
2023/08/31 07:13:03;;;;;;;7.63;1.85;;;14.90;99.90;;;;;;5033015;28;20203;-66
2023/08/31 07:15:29;;;;;;;6.75;1.90;;;15.00;99.90;;;;;;5035544;28;20675;-69
2023/08/31 07:17:55;;;;;;;7.43;1.55;;;15.10;99.90;;;;;;5035184;28;20191;-66
2023/08/31 07:20:21;;;;;;;5.72;1.40;;;15.10;99.90;;;;;;5030622;28;20183;-67
2023/08/31 07:22:48;;;;;;;5.40;1.52;;;15.20;99.90;;;;;;5031637;28;20591;-69
2023/08/31 07:25:14;;;;;;;6.68;1.67;;;15.20;99.90;;;;;;5029111;28;20688;-65
2023/08/31 07:27:40;;;;;;;6.90;1.80;;;15.30;99.90;;;;;;5028911;28;20191;-65
2023/08/31 07:30:07;;;;;;;3.85;1.63;;;15.40;99.90;;;;;;5029471;28;20188;-68
2023/08/31 07:32:33;;;;;;;5.82;1.50;;;15.40;99.90;;;;;;5035085;28;20175;-67
2023/08/31 07:34:59;;;;;;;4.93;1.42;;;15.50;99.90;;;;;;5030559;28;20254;-66
2023/08/31 07:37:24;;;;;;;9.00;1.45;;;15.60;99.90;;;;;;5033794;28;20276;-67
2023/08/31 07:39:51;;;;;;;6.22;1.60;;;15.70;99.90;;;;;;5028159;28;20272;-67
2023/08/31 07:42:17;;;;;;;4.95;1.40;;;15.80;99.90;;;;;;5033450;28;20187;-67
2023/08/31 07:44:44;;;;;;;5.00;1.10;;;15.90;99.90;;;;;;5027568;28;20200;-70
2023/08/31 07:47:10;;;;;;;1.73;1.05;;;15.90;99.90;;;;;;5031568;28;20187;-67
2023/08/31 07:49:36;;;;;;;3.63;1.35;;;15.90;99.90;;;;;;5027673;28;20192;-67
2023/08/31 07:52:03;;;;;;;3.50;1.27;;;16.00;99.90;;;;;;5030204;28;20191;-67
2023/08/31 07:54:29;;;;;;;10.20;1.90;;;16.10;99.90;;;;;;5029140;28;20701;-65
2023/08/31 07:56:55;;;;;;;2.08;1.05;;;16.20;99.90;;;;;;5033268;28;20258;-64
2023/08/31 07:59:21;;;;;;;4.88;1.27;;;16.30;99.90;;;;;;5028496;28;20216;-72
2023/08/31 08:01:47;;;;;;;5.03;1.40;;;16.30;99.90;;;;;;5033142;28;20595;-67
2023/08/31 08:04:14;;;;;;;3.67;1.30;;;16.40;99.90;;;;;;5029119;28;20235;-66
2023/08/31 08:06:40;;;;;;;2.53;1.08;;;16.50;99.90;;;;;;5035571;28;20640;-67
2023/08/31 08:09:06;;;;;;;4.00;1.00;;;16.60;99.90;;;;;;5029985;28;20222;-67
2023/08/31 08:11:34;;;;;;;3.42;1.10;;;16.70;99.90;;;;;;5033818;28;20204;-67
2023/08/31 08:14:00;;;;;;;2.97;1.27;;;16.70;99.90;;;;;;5035251;28;20208;-66
2023/08/31 08:16:26;;;;;;;4.38;1.20;;;16.80;99.90;;;;;;5032782;28;20214;-67
2023/08/31 08:18:52;;;;;;;4.57;1.15;;;16.80;99.90;;;;;;5028782;28;20199;-66
2023/08/31 08:21:18;;;;;;;4.78;1.30;;;16.90;99.90;;;;;;5033634;28;20774;-67
2023/08/31 08:23:44;;;;;;;2.67;1.00;;;16.90;99.90;;;;;;5036343;28;20198;-70
2023/08/31 08:26:10;;;;;;;4.60;1.00;;;17.00;99.90;;;;;;5029133;28;20207;-67
2023/08/31 08:28:36;;;;;;;4.50;1.02;;;17.10;99.90;;;;;;5031446;28;20515;-69
2023/08/31 08:31:05;;;;;;;2.88;1.08;;;17.10;99.90;;;;;;5024299;28;20245;-68
2023/08/31 08:33:31;;;;;;;2.55;1.02;;;17.20;99.90;;;;;;5032481;28;20322;-66
2023/08/31 08:35:57;;;;;;;3.72;1.20;;;17.20;99.90;;;;;;5030832;28;20190;-65
2023/08/31 08:38:25;;;;;;;4.43;1.20;;;17.30;99.90;;;;;;5032564;28;20676;-66
2023/08/31 08:40:50;;;;;;;4.53;1.17;;;17.30;99.90;;;;;;5029291;28;20211;-66
2023/08/31 08:43:24;;;;;;;3.88;1.02;;;17.40;99.90;;;;;;5038203;28;20215;-65
2023/08/31 08:45:51;;;;;;;6.55;1.13;;;17.50;99.90;;;;;;5025265;28;20195;-65
2023/08/31 08:48:19;;;;;;;3.75;1.10;;;17.60;99.90;;;;;;5031407;28;20215;-68
2023/08/31 08:50:45;;;;;;;5.28;1.17;;;17.70;99.90;;;;;;5028891;28;20215;-69
2023/08/31 08:53:13;;;;;;;3.80;1.05;;;17.80;99.90;;;;;;5031685;28;20212;-66
2023/08/31 08:55:41;;;;;;;3.42;1.25;;;18.00;99.90;;;;;;5026512;28;20232;-65
2023/08/31 08:58:12;;;;;;;3.05;0.93;;;18.10;99.90;;;;;;5029272;28;20210;-64
2023/08/31 09:00:38;;;;;;;3.72;1.10;;;18.20;99.90;;;;;;5030288;28;20218;-65
2023/08/31 09:03:04;;;;;;;3.47;1.20;;;18.20;99.90;;;;;;5029576;28;20198;-66
2023/08/31 09:05:33;;;;;;;3.53;1.13;;;18.30;99.90;;;;;;5028252;28;20184;-69
2023/08/31 09:08:12;;;;;;;3.80;0.93;;;18.40;99.90;;;;;;5034533;28;20183;-69
2023/08/31 09:10:40;;;;;;;3.33;0.93;;;18.60;99.90;;;;;;5027682;28;20187;-71
2023/08/31 09:13:10;;;;;;;1.90;0.88;;;18.70;99.90;;;;;;5029273;28;20668;-69
2023/08/31 09:15:42;;;;;;;2.45;0.77;;;18.60;99.90;;;;;;5029196;28;20207;-71
2023/08/31 09:18:22;;;;;;;1.33;0.85;;;18.40;99.90;;;;;;5032440;28;20223;-66
2023/08/31 09:20:48;;;;;;;2.42;0.88;;;18.20;99.90;;;;;;5042522;28;20210;-70
2023/08/31 09:23:15;;;;;;;4.78;1.10;;;17.90;99.90;;;;;;5029628;28;20636;-68
2023/08/31 09:25:48;;;;;;;2.80;1.10;;;17.80;99.90;;;;;;5028502;28;20187;-67
2023/08/31 09:28:19;;;;;;;2.72;0.95;;;17.70;99.90;;;;;;5027365;28;20203;-69
2023/08/31 09:30:50;;;;;;;5.80;0.90;;;17.70;99.90;;;;;;5024716;28;20194;-69
2023/08/31 09:33:18;;;;;;;2.40;0.80;;;17.70;99.90;;;;;;5023950;28;20565;-68
2023/08/31 09:35:55;;;;;;;3.13;1.05;;;17.80;99.90;;;;;;5028065;28;20176;-67
2023/08/31 09:38:21;;;;;;;2.33;1.02;;;17.80;99.90;;;;;;5026275;28;20180;-69
2023/08/31 09:40:47;;;;;;;5.47;1.30;;;17.90;99.90;;;;;;5028819;28;20191;-69
2023/08/31 09:43:23;;;;;;;2.42;1.00;;;18.10;99.90;;;;;;5029362;28;20203;-67
2023/08/31 09:45:52;;;;;;;2.10;0.90;;;18.30;99.90;;;;;;5019135;28;20192;-66
2023/08/31 09:48:19;;;;;;;4.60;1.15;;;18.50;99.90;;;;;;5061357;28;20184;-66
2023/08/31 09:50:46;;;;;;;4.00;1.02;;;18.70;99.90;;;;;;5027995;28;20348;-67
2023/08/31 09:53:12;;;;;;;3.65;0.73;;;18.80;99.90;;;;;;5040911;28;20215;-67
2023/08/31 09:55:40;;;;;;;2.28;0.90;;;18.80;99.90;;;;;;5028152;28;20266;-67
2023/08/31 09:58:07;;;;;;;3.13;1.20;;;18.70;99.90;;;;;;5030660;28;20171;-66
2023/08/31 10:00:36;;;;;;;2.15;0.70;;;18.60;99.90;;;;;;5023741;28;20168;-69
2023/08/31 10:03:04;;;;;;;1.90;1.08;;;18.50;99.90;;;;;;5031263;28;20223;-66
2023/08/31 10:05:32;;;;;;;2.97;1.05;;;18.50;99.90;;;;;;5029927;28;20206;-66
2023/08/31 10:07:59;;;;;;;6.43;1.20;;;18.40;99.90;;;;;;5031065;28;20194;-67
2023/08/31 10:10:26;;;;;;;4.43;1.38;;;18.40;99.90;;;;;;5025549;28;20192;-67
2023/08/31 10:12:53;;;;;;;3.85;1.20;;;18.50;99.90;;;;;;5036039;28;20647;-66
2023/08/31 10:15:19;;;;;;;1.95;1.33;;;18.40;99.90;;;;;;5026632;28;20259;-66
2023/08/31 10:17:46;;;;;;;3.15;1.50;;;18.30;99.90;;;;;;5031756;28;20202;-66
2023/08/31 10:20:15;;;;;;;6.72;1.23;;;18.20;99.90;;;;;;5023875;28;20195;-66
2023/08/31 10:22:41;;;;;;;3.50;1.10;;;18.10;99.90;;;;;;5032522;28;20646;-67
2023/08/31 10:25:07;;;;;;;3.60;1.27;;;18.10;99.90;;;;;;5026722;28;20644;-67
2023/08/31 10:27:38;;;;;;;5.55;1.45;;;18.00;99.90;;;;;;5025825;28;20279;-66
2023/08/31 10:30:23;;;;;;;4.00;1.50;;;18.00;99.90;;;;;;5024257;28;20862;-65
2023/08/31 10:33:07;;;;;;;3.85;1.38;;;17.90;99.90;;;;;;5033738;28;20215;-66
2023/08/31 10:36:02;;;;;;;3.08;1.27;;;18.00;99.90;;;;;;5027517;28;20275;-65
2023/08/31 10:38:32;;;;;;;4.63;1.00;;;18.10;99.90;;;;;;5033526;28;20769;-68
2023/08/31 10:41:08;;;;;;;3.65;1.30;;;18.20;99.90;;;;;;5026220;28;20589;-66
2023/08/31 10:43:49;;;;;;;5.80;1.55;;;18.30;99.90;;;;;;5043526;28;20184;-66
2023/08/31 10:46:38;;;;;;;5.95;1.35;;;18.40;99.90;;;;;;5032286;28;20190;-68
2023/08/31 10:49:11;;;;;;;4.30;1.27;;;18.70;99.90;;;;;;5057607;28;20210;-67
2023/08/31 10:51:39;;;;;;;1.95;1.20;;;18.90;99.90;;;;;;5030330;28;20179;-67
2023/08/31 10:54:13;;;;;;;5.30;1.67;;;19.10;99.90;;;;;;5031173;28;20570;-65
2023/08/31 10:57:00;;;;;;;4.00;1.40;;;19.10;99.90;;;;;;5033209;28;20227;-68
2023/08/31 10:59:40;;;;;;;5.78;1.20;;;19.00;99.90;;;;;;5031221;28;20207;-66
2023/08/31 11:02:07;;;;;;;3.97;1.50;;;18.80;99.90;;;;;;5034730;28;20195;-67
2023/08/31 11:05:03;;;;;;;9.02;2.03;;;18.60;99.90;;;;;;5031955;28;20255;-69
2023/08/31 11:07:29;;;;;;;3.20;1.10;;;18.40;99.90;;;;;;5035362;28;20218;-68
2023/08/31 11:10:17;;;;;;;4.63;1.58;;;18.20;99.90;;;;;;5030668;28;20742;-68
2023/08/31 11:12:44;;;;;;;5.47;1.50;;;18.10;99.90;;;;;;5032633;28;20203;-66
2023/08/31 11:15:15;;;;;;;4.80;1.60;;;18.20;99.90;;;;;;5029337;28;20604;-67
2023/08/31 11:17:42;;;;;;;2.83;1.48;;;18.20;99.90;;;;;;5034848;28;20230;-67
2023/08/31 11:20:23;;;;;;;5.25;1.52;;;18.30;99.90;;;;;;5025050;28;20173;-68
2023/08/31 11:22:53;;;;;;;4.05;1.20;;;18.40;99.90;;;;;;5035258;28;20187;-68
2023/08/31 11:25:20;;;;;;;3.38;1.27;;;18.50;99.90;;;;;;5027067;28;20184;-66
2023/08/31 11:28:01;;;;;;;3.35;1.23;;;18.70;99.90;;;;;;5032439;28;20215;-67
2023/08/31 11:30:34;;;;;;;4.20;1.42;;;18.90;99.90;;;;;;5026681;28;20179;-67
2023/08/31 11:33:05;;;;;;;4.30;1.20;;;19.10;99.90;;;;;;5037515;28;20187;-67
2023/08/31 11:35:35;;;;;;;3.50;1.33;;;19.20;99.90;;;;;;5028755;28;20191;-66
2023/08/31 11:38:01;;;;;;;4.22;1.35;;;19.40;99.90;;;;;;5033226;28;20188;-67
2023/08/31 11:40:28;;;;;;;4.13;1.30;;;19.50;99.90;;;;;;5031336;28;20180;-70
2023/08/31 11:42:54;;;;;;;3.00;1.08;;;19.60;99.90;;;;;;5033889;28;20198;-68
2023/08/31 11:45:22;;;;;;;10.38;1.48;;;19.70;99.90;;;;;;5029680;28;20176;-66
2023/08/31 11:47:49;;;;;;;3.00;1.17;;;19.80;99.90;;;;;;5033044;28;20191;-66
2023/08/31 11:50:16;;;;;;;3.00;1.00;;;19.90;99.90;;;;;;5031203;28;20198;-66
2023/08/31 11:52:43;;;;;;;2.78;1.05;;;19.80;99.90;;;;;;5035443;28;20507;-67
2023/08/31 11:55:13;;;;;;;6.57;1.20;;;19.60;99.90;;;;;;5028794;28;20227;-61
2023/08/31 11:57:39;;;;;;;7.18;1.33;;;19.10;99.90;;;;;;5032405;28;20218;-61
2023/08/31 12:00:10;;;;;;;5.40;1.58;;;18.20;99.90;;;;;;5030516;28;20208;-59
2023/08/31 12:02:36;;;;;;;5.18;1.63;;;17.30;99.90;;;;;;5031089;28;20211;-60
2023/08/31 12:05:05;;;;;;;3.85;1.70;;;16.70;99.90;;;;;;5031126;28;20215;-60
2023/08/31 12:07:31;;;;;;;5.97;1.50;;;16.30;99.90;;;;;;5033598;28;20216;-60
2023/08/31 12:10:03;;;;;;;6.70;2.58;;;16.00;99.90;;;;;;5031344;28;20206;-60
2023/08/31 12:12:32;;;;;;;8.32;1.80;;;16.00;99.90;;;;;;5028322;28;20868;-59
2023/08/31 12:15:03;;;;;;;6.38;1.77;;;15.90;99.90;;;;;;5030448;28;20634;-60
2023/08/31 12:17:32;;;;;;;4.28;1.55;;;15.90;99.90;;;;;;5031429;28;20215;-60
2023/08/31 12:20:06;;;;;;;12.55;1.40;;;15.80;99.90;;;;;;5030201;28;20270;-59
2023/08/31 12:22:32;;;;;;;4.45;1.65;;;15.60;99.90;;;;;;5033876;28;20184;-61
2023/08/31 12:24:58;;;;;;;5.78;1.80;;;15.20;99.90;;;;;;5034445;28;20184;-59
2023/08/31 12:27:24;;;;;;;4.18;1.52;;;15.10;99.90;;;;;;5029842;28;20715;-60
2023/08/31 12:29:50;;;;;;;2.95;1.70;;;15.00;99.90;;;;;;5026394;28;20185;-59
2023/08/31 12:32:19;;;;;;;7.88;1.90;;;15.00;99.90;;;;;;5032815;28;20262;-62
2023/08/31 12:34:45;;;;;;;6.35;1.83;;;15.00;99.90;;;;;;5031714;28;20399;-62
2023/08/31 12:37:11;;;;;;;7.10;1.83;;;15.00;99.90;;;;;;5031795;28;20215;-64
2023/08/31 12:39:37;;;;;;;4.50;1.90;;;15.00;99.90;;;;;;5030473;28;20203;-66
2023/08/31 12:42:04;;;;;;;4.75;1.85;;;15.10;99.90;;;;;;5033779;28;20558;-64
2023/08/31 12:44:31;;;;;;;5.18;1.95;;;15.10;99.90;;;;;;5029525;28;20587;-63
2023/08/31 12:46:56;;;;;;;8.35;2.17;;;15.20;99.90;;;;;;5029548;28;20226;-62
2023/08/31 12:49:22;;;;;;;8.02;2.50;;;15.40;99.90;;;;;;5022781;28;20633;-61
2023/08/31 12:51:50;;;;;;;6.30;2.08;;;15.40;99.90;;;;;;5032359;28;20529;-62